Hatton, Missouri
Current Conditions -  °F | °C
As of 1:54 AM on Tuesday 27 Jan 2015 (Local Time) from KCOU Reporting Station
Clear Clear  
Wind Chill: 34°   Ceiling: Unl
Heat Index: 39°   Visibility: 10mi
Dew Point: 33°   Wind: 7mph
Humidity: 79%   Direction: 320°NW
Pressure: 29.99"   Gusts: NA
Location:  39.0046°N, 91.853°W
Report Text: KCOU 270754Z AUTO 32006KT 10SM CLR 04/01 A2999 RMK AO2 SLP158 T00390006
Loading
Personal Weather Stations






























Interactive Weather Map New forecast layout! Learn more

10-Day Weather Forecast

Advertisements
Track Severe Weather on mobile